createdAt,value
2019-04-20T00:01:28.123Z,102535.97
2019-04-20T00:03:56.824Z,102535.71
2019-04-20T00:06:31.648Z,102530.92
2019-04-20T00:09:12.255Z,102535.35
2019-04-20T00:11:49.310Z,102530.72
2019-04-20T00:14:19.705Z,102536.41
2019-04-20T00:16:50.578Z,102528.23
2019-04-20T00:19:33.408Z,102536.31
2019-04-20T00:22:07.065Z,102535.98
2019-04-20T00:24:50.555Z,102526.20
2019-04-20T00:27:46.665Z,102534.24
2019-04-20T00:30:21.257Z,102530.28
2019-04-20T00:32:46.617Z,102526.75
2019-04-20T00:35:06.277Z,102520.17
2019-04-20T00:37:40.188Z,102524.36
2019-04-20T00:40:13.483Z,102530.66
2019-04-20T00:42:51.984Z,102524.27
2019-04-20T00:45:25.728Z,102519.62
2019-04-20T00:48:03.443Z,102518.72
2019-04-20T00:50:44.423Z,102521.23
2019-04-20T00:53:19.565Z,102518.85
2019-04-20T00:55:40.383Z,102522.28
2019-04-20T00:58:20.173Z,102517.70
2019-04-20T01:01:06.961Z,102522.00
2019-04-20T01:03:38.968Z,102522.25
2019-04-20T01:06:23.406Z,102524.27
2019-04-20T01:08:55.650Z,102518.59
2019-04-20T01:11:36.411Z,102521.41
2019-04-20T01:14:10.658Z,102524.42
2019-04-20T01:16:50.550Z,102520.48
2019-04-20T01:19:19.286Z,102522.97
2019-04-20T01:21:58.804Z,102518.66
2019-04-20T01:24:31.395Z,102518.63
2019-04-20T01:27:03.456Z,102520.88
2019-04-20T01:29:43.884Z,102522.58
2019-04-20T01:32:20.842Z,102524.97
2019-04-20T01:34:55.085Z,102517.05
2019-04-20T01:37:35.424Z,102517.92
2019-04-20T01:39:55.896Z,102519.64
2019-04-20T01:42:27.905Z,102527.70
2019-04-20T01:45:02.074Z,102522.07
2019-04-20T01:47:41.630Z,102530.27
2019-04-20T01:50:18.598Z,102526.56
2019-04-20T01:52:56.465Z,102523.38
2019-04-20T01:55:42.561Z,102522.41
2019-04-20T01:58:43.556Z,102525.62
2019-04-20T02:01:21.128Z,102521.57
2019-04-20T02:04:06.382Z,102528.06
2019-04-20T02:06:43.412Z,102526.43
2019-04-20T02:09:18.679Z,102526.94
2019-04-20T02:11:50.812Z,102521.47
2019-04-20T02:14:28.747Z,102527.28
2019-04-20T02:17:08.664Z,102535.66
2019-04-20T02:19:41.341Z,102529.80
2019-04-20T02:22:22.724Z,102530.22
2019-04-20T02:24:40.845Z,102527.36
2019-04-20T02:27:14.751Z,102530.22
2019-04-20T02:30:13.532Z,102536.11
2019-04-20T02:33:11.948Z,102528.88
2019-04-20T02:36:15.096Z,102528.45
2019-04-20T02:39:05.168Z,102536.62
2019-04-20T02:41:36.027Z,102532.58
2019-04-20T02:44:03.455Z,102531.11
2019-04-20T02:46:24.634Z,102532.56
2019-04-20T02:49:00.688Z,102532.72
2019-04-20T02:51:39.291Z,102529.61
2019-04-20T02:56:48.388Z,102531.74
2019-04-20T02:59:52.108Z,102532.56
2019-04-20T03:01:40.711Z,102530.58
2019-04-20T03:04:00.752Z,102533.56
2019-04-20T03:06:42.329Z,102533.00
2019-04-20T03:09:31.517Z,102524.80
2019-04-20T03:12:04.490Z,102526.78
2019-04-20T03:14:33.152Z,102524.98
2019-04-20T03:17:15.334Z,102524.94
2019-04-20T03:19:41.438Z,102527.41
2019-04-20T03:22:24.632Z,102528.44
2019-04-20T03:24:59.090Z,102529.27
2019-04-20T03:27:41.029Z,102532.67
2019-04-20T03:33:44.169Z,102531.53
2019-04-20T03:36:10.323Z,102531.21
2019-04-20T03:38:33.271Z,102524.42
2019-04-20T03:40:56.489Z,102527.25
2019-04-20T03:43:20.192Z,102525.86
2019-04-20T03:45:59.580Z,102523.20
2019-04-20T03:48:45.261Z,102524.51
2019-04-20T03:51:29.119Z,102523.12
2019-04-20T03:54:29.805Z,102525.00
2019-04-20T03:57:21.412Z,102526.52
2019-04-20T04:00:00.381Z,102522.94
2019-04-20T04:03:01.576Z,102529.00
2019-04-20T04:05:42.218Z,102534.09
2019-04-20T04:08:10.332Z,102532.98
2019-04-20T04:10:54.928Z,102527.82
2019-04-20T04:13:16.763Z,102528.71
2019-04-20T04:15:57.775Z,102527.95
2019-04-20T04:18:34.730Z,102528.17
2019-04-20T04:21:07.631Z,102521.55
2019-04-20T04:23:54.472Z,102522.98
2019-04-20T04:26:28.972Z,102533.11
2019-04-20T04:29:08.649Z,102527.55
2019-04-20T04:31:38.325Z,102527.93
2019-04-20T04:34:14.708Z,102530.55
2019-04-20T04:36:49.746Z,102527.34
2019-04-20T04:39:25.199Z,102525.37
2019-04-20T04:42:07.494Z,102529.13
2019-04-20T04:44:26.321Z,102526.95
2019-04-20T04:46:54.682Z,102528.00
2019-04-20T04:49:28.415Z,102528.44
2019-04-20T04:52:06.257Z,102535.06
2019-04-20T04:54:44.600Z,102528.80
2019-04-20T04:57:09.504Z,102530.31
2019-04-20T04:59:42.597Z,102537.53
2019-04-20T05:02:15.975Z,102539.33
2019-04-20T05:05:25.223Z,102532.62
2019-04-20T05:07:52.083Z,102532.28
2019-04-20T05:10:14.050Z,102535.80
2019-04-20T05:12:48.191Z,102534.91
2019-04-20T05:15:37.676Z,102544.24
2019-04-20T05:18:16.198Z,102538.02
2019-04-20T05:20:53.390Z,102538.65
2019-04-20T05:23:29.521Z,102540.48
2019-04-20T05:26:29.900Z,102539.81
2019-04-20T05:29:03.429Z,102544.57
2019-04-20T05:31:34.890Z,102537.11
2019-04-20T05:34:26.293Z,102537.38
2019-04-20T05:36:55.624Z,102542.77
2019-04-20T05:39:36.852Z,102537.44
2019-04-20T05:42:13.301Z,102532.22
2019-04-20T05:44:45.814Z,102533.90
2019-04-20T05:47:21.475Z,102528.23
2019-04-20T05:49:50.091Z,102524.20
2019-04-20T05:52:35.180Z,102530.88
2019-04-20T05:55:02.690Z,102537.69
2019-04-20T05:57:40.106Z,102536.04
2019-04-20T06:00:14.607Z,102531.66
2019-04-20T06:02:52.786Z,102531.16
2019-04-20T06:05:23.913Z,102534.27
2019-04-20T06:07:59.082Z,102535.82
2019-04-20T06:10:39.677Z,102532.94
2019-04-20T06:13:07.484Z,102536.25
2019-04-20T06:15:53.985Z,102546.62
2019-04-20T06:18:24.091Z,102542.44
2019-04-20T06:21:15.897Z,102543.94
2019-04-20T06:23:59.342Z,102538.97
2019-04-20T06:29:10.162Z,102525.36
2019-04-20T06:31:45.964Z,102532.84
2019-04-20T06:44:41.174Z,102537.67
2019-04-20T06:47:22.788Z,102538.94
2019-04-20T06:49:55.090Z,102542.23
2019-04-20T06:52:27.409Z,102540.42
2019-04-20T06:57:48.603Z,102537.02
2019-04-20T07:02:54.355Z,102538.98
2019-04-20T07:05:45.771Z,102537.24
2019-04-20T07:08:16.839Z,102536.01
2019-04-20T07:10:49.482Z,102538.03
2019-04-20T07:13:07.948Z,102534.97
2019-04-20T07:15:56.844Z,102531.54
2019-04-20T07:18:43.710Z,102533.17
2019-04-20T07:21:26.413Z,102534.45
2019-04-20T07:24:05.056Z,102530.27
2019-04-20T07:26:37.371Z,102528.97
2019-04-20T07:29:10.118Z,102522.61
2019-04-20T07:31:36.642Z,102529.62
2019-04-20T07:34:18.352Z,102519.57
2019-04-20T07:37:04.382Z,102519.55
2019-04-20T07:39:27.922Z,102521.41
2019-04-20T07:42:08.934Z,102529.59
2019-04-20T07:44:41.175Z,102525.30
2019-04-20T07:47:18.378Z,102515.58
2019-04-20T07:49:44.381Z,102520.07
2019-04-20T07:51:59.650Z,102524.49
2019-04-20T07:55:12.185Z,102522.58
2019-04-20T07:57:24.268Z,102518.41
2019-04-20T08:00:00.368Z,102520.23
2019-04-20T08:03:04.505Z,102522.21
2019-04-20T08:05:34.689Z,102527.56
2019-04-20T08:08:14.875Z,102521.01
2019-04-20T08:10:47.323Z,102519.27
2019-04-20T08:13:33.377Z,102511.30
2019-04-20T08:16:03.086Z,102505.22
2019-04-20T08:18:39.975Z,102509.70
2019-04-20T08:21:08.228Z,102503.03
2019-04-20T08:23:47.328Z,102500.78
2019-04-20T08:26:05.482Z,102501.21
2019-04-20T08:28:56.778Z,102499.80
2019-04-20T08:32:04.828Z,102496.75
2019-04-20T08:34:42.045Z,102499.39
2019-04-20T08:37:11.628Z,102493.69
2019-04-20T08:39:58.327Z,102496.80
2019-04-20T08:42:23.219Z,102490.11
2019-04-20T08:45:03.941Z,102491.91
2019-04-20T08:47:44.835Z,102490.94
2019-04-20T08:55:23.906Z,102483.86
2019-04-20T08:57:44.450Z,102481.22
2019-04-20T09:00:27.490Z,102475.55
2019-04-20T09:02:59.241Z,102470.17
2019-04-20T09:05:40.060Z,102466.95
2019-04-20T09:08:11.327Z,102465.50
2019-04-20T09:10:56.501Z,102458.38
2019-04-20T09:13:21.205Z,102458.39
2019-04-20T09:15:49.289Z,102457.93
2019-04-20T09:18:56.910Z,102454.02
2019-04-20T09:21:36.871Z,102452.68
2019-04-20T09:24:22.906Z,102450.66
2019-04-20T09:26:59.144Z,102453.06
2019-04-20T09:29:21.000Z,102451.72
2019-04-20T09:32:14.181Z,102441.11
2019-04-20T09:34:57.066Z,102444.50
2019-04-20T09:37:43.140Z,102440.33
2019-04-20T09:40:58.335Z,102441.15
2019-04-20T09:43:10.887Z,102441.23
2019-04-20T09:45:48.982Z,102435.55
2019-04-20T09:48:31.320Z,102440.34
2019-04-20T09:51:16.948Z,102433.18
2019-04-20T09:53:45.462Z,102438.56
2019-04-20T09:56:19.440Z,102436.73
2019-04-20T09:59:06.456Z,102434.39
2019-04-20T10:01:31.050Z,102430.25
2019-04-20T10:03:56.983Z,102426.91
2019-04-20T10:06:34.537Z,102432.88
2019-04-20T10:09:09.676Z,102424.22
2019-04-20T10:11:46.780Z,102426.16
2019-04-20T10:14:20.042Z,102423.36
2019-04-20T10:16:53.822Z,102420.93
2019-04-20T10:19:32.441Z,102423.79
2019-04-20T10:22:02.506Z,102426.62
2019-04-20T10:24:36.900Z,102420.80
2019-04-20T10:27:10.544Z,102415.95
2019-04-20T10:29:46.333Z,102414.92
2019-04-20T10:32:31.087Z,102412.61
2019-04-20T10:35:02.475Z,102412.91
2019-04-20T10:37:45.143Z,102414.23
2019-04-20T10:40:32.623Z,102411.45
2019-04-20T10:42:53.294Z,102410.09
2019-04-20T10:45:26.825Z,102406.50
2019-04-20T10:48:01.109Z,102406.78
2019-04-20T10:50:34.754Z,102408.11
2019-04-20T10:53:07.989Z,102402.11
2019-04-20T10:55:41.170Z,102401.16
2019-04-20T10:58:14.094Z,102396.95
2019-04-20T11:00:49.878Z,102399.33
2019-04-20T11:03:22.886Z,102400.16
2019-04-20T11:05:56.471Z,102398.81
2019-04-20T11:08:30.684Z,102403.11
2019-04-20T11:11:12.704Z,102395.50
2019-04-20T11:13:39.357Z,102396.08
2019-04-20T11:16:12.694Z,102380.22
2019-04-20T11:18:45.689Z,102383.05
2019-04-20T11:21:19.614Z,102375.45
2019-04-20T11:23:54.026Z,102379.43
2019-04-20T11:26:28.476Z,102369.19
2019-04-20T11:29:04.114Z,102374.55
2019-04-20T11:31:43.188Z,102370.89
2019-04-20T11:34:14.983Z,102369.92
2019-04-20T11:36:46.918Z,102365.30
2019-04-20T11:39:20.929Z,102370.66
2019-04-20T11:41:53.986Z,102371.91
2019-04-20T11:44:30.312Z,102364.53
2019-04-20T11:47:03.386Z,102359.19
2019-04-20T11:49:37.596Z,102356.50
2019-04-20T11:52:16.498Z,102348.55
2019-04-20T11:54:48.587Z,102355.64
2019-04-20T11:57:21.706Z,102349.11
2019-04-20T11:59:55.028Z,102336.25
2019-04-20T12:02:40.422Z,102332.28
2019-04-20T12:05:21.262Z,102332.77
2019-04-20T12:08:07.069Z,102338.77
2019-04-20T12:10:43.860Z,102336.73
2019-04-20T12:13:16.356Z,102337.91
2019-04-20T12:15:49.691Z,102329.85
2019-04-20T12:18:23.409Z,102329.74
2019-04-20T12:20:58.935Z,102327.02
2019-04-20T12:23:32.127Z,102322.73
2019-04-20T12:26:05.028Z,102322.48
2019-04-20T12:28:38.017Z,102316.68
2019-04-20T12:31:15.597Z,102312.20
2019-04-20T12:33:46.507Z,102307.37
2019-04-20T12:36:20.601Z,102309.09
2019-04-20T12:38:54.919Z,102307.00
2019-04-20T12:41:37.586Z,102294.95
2019-04-20T12:44:03.885Z,102294.61
2019-04-20T12:46:38.122Z,102293.53
2019-04-20T12:49:11.669Z,102289.81
2019-04-20T12:51:53.983Z,102290.84
2019-04-20T12:54:20.843Z,102289.64
2019-04-20T12:56:53.702Z,102290.87
2019-04-20T12:59:27.555Z,102287.73
2019-04-20T13:02:01.642Z,102279.03
2019-04-20T13:04:35.284Z,102270.39
2019-04-20T13:07:08.376Z,102274.63
2019-04-20T13:09:52.679Z,102275.62
2019-04-20T13:12:44.566Z,102268.33
2019-04-20T13:15:28.834Z,102270.94
2019-04-20T13:18:03.253Z,102273.19
2019-04-20T13:20:36.329Z,102272.62
2019-04-20T13:23:11.030Z,102265.30
2019-04-20T13:25:44.137Z,102256.11
2019-04-20T13:28:17.084Z,102269.01
2019-04-20T13:30:50.174Z,102263.14
2019-04-20T13:33:23.179Z,102262.48
2019-04-20T13:35:56.422Z,102253.95
2019-04-20T13:38:30.183Z,102250.40
2019-04-20T13:41:04.065Z,102254.44
2019-04-20T13:43:38.191Z,102250.69
2019-04-20T13:46:11.191Z,102243.72
2019-04-20T13:48:44.821Z,102238.41
2019-04-20T13:51:18.857Z,102240.58
2019-04-20T13:53:53.270Z,102236.30
2019-04-20T13:56:27.750Z,102243.81
2019-04-20T13:59:23.557Z,102241.02
2019-04-20T14:02:15.472Z,102226.98
2019-04-20T14:05:06.823Z,102233.78
2019-04-20T14:07:41.747Z,102234.12
2019-04-20T14:10:15.431Z,102226.30
2019-04-20T14:12:57.292Z,102225.00
2019-04-20T14:15:23.138Z,102222.08
2019-04-20T14:17:57.285Z,102225.20
2019-04-20T14:20:30.189Z,102226.24
2019-04-20T14:23:03.239Z,102218.83
2019-04-20T14:25:36.752Z,102210.34
2019-04-20T14:28:11.220Z,102209.95
2019-04-20T14:30:45.940Z,102203.72
2019-04-20T14:33:19.372Z,102203.44
2019-04-20T14:35:52.767Z,102200.53
2019-04-20T14:38:26.404Z,102193.13
2019-04-20T14:41:00.114Z,102192.70
2019-04-20T14:43:34.663Z,102193.61
2019-04-20T14:46:08.544Z,102192.77
2019-04-20T14:48:42.685Z,102198.60
2019-04-20T14:51:15.658Z,102191.59
2019-04-20T14:53:49.497Z,102192.50
2019-04-20T14:56:23.444Z,102192.66
2019-04-20T14:59:02.986Z,102184.20
2019-04-20T15:01:42.695Z,102177.12
2019-04-20T15:04:19.502Z,102176.16
2019-04-20T15:06:52.625Z,102172.14
2019-04-20T15:09:26.709Z,102172.59
2019-04-20T15:12:00.945Z,102177.42
2019-04-20T15:14:34.601Z,102174.74
2019-04-20T15:17:10.798Z,102163.58
2019-04-20T15:20:09.713Z,102168.41
2019-04-20T15:22:49.787Z,102166.45
2019-04-20T15:25:23.376Z,102167.16
2019-04-20T15:28:00.559Z,102165.72
2019-04-20T15:30:34.224Z,102166.63
2019-04-20T15:33:07.365Z,102160.35
2019-04-20T15:35:40.341Z,102154.47
2019-04-20T15:38:13.369Z,102149.37
2019-04-20T15:40:46.974Z,102149.51
2019-04-20T15:43:24.033Z,102152.20
2019-04-20T15:45:55.243Z,102147.28
2019-04-20T15:48:28.277Z,102142.48
2019-04-20T15:51:01.737Z,102148.42
2019-04-20T15:53:35.513Z,102146.67
2019-04-20T15:56:11.564Z,102146.81
2019-04-20T15:58:44.246Z,102143.47
2019-04-20T16:01:20.730Z,102147.26
2019-04-20T16:03:59.350Z,102141.95
2019-04-20T16:06:32.848Z,102144.30
2019-04-20T16:09:10.209Z,102144.17
2019-04-20T16:11:46.698Z,102139.77
2019-04-20T16:14:21.544Z,102138.49
2019-04-20T16:16:56.164Z,102138.11
2019-04-20T16:19:39.492Z,102136.80
2019-04-20T16:22:04.166Z,102131.05
2019-04-20T16:24:42.759Z,102129.27
2019-04-20T16:27:33.934Z,102127.94
2019-04-20T16:30:09.619Z,102131.94
2019-04-20T16:32:43.179Z,102131.48
2019-04-20T16:35:16.374Z,102132.39
2019-04-20T16:37:50.745Z,102127.12
2019-04-20T16:40:25.328Z,102130.73
2019-04-20T16:42:58.551Z,102129.88
2019-04-20T16:45:32.930Z,102129.00
2019-04-20T16:48:06.777Z,102128.12
2019-04-20T16:50:40.743Z,102129.44
2019-04-20T16:53:15.016Z,102127.67
2019-04-20T16:55:48.498Z,102128.16
2019-04-20T16:58:21.766Z,102130.44
2019-04-20T17:00:55.911Z,102130.89
2019-04-20T17:03:40.804Z,102122.03
2019-04-20T17:06:04.543Z,102123.81
2019-04-20T17:08:40.852Z,102122.53
2019-04-20T17:11:13.647Z,102116.75
2019-04-20T17:13:50.095Z,102119.86
2019-04-20T17:16:21.963Z,102114.57
2019-04-20T17:18:55.328Z,102119.91
2019-04-20T17:21:30.652Z,102107.06
2019-04-20T17:24:03.764Z,102115.52
2019-04-20T17:26:45.135Z,102113.30
2019-04-20T17:29:26.200Z,102116.45
2019-04-20T17:32:09.871Z,102112.49
2019-04-20T17:34:58.368Z,102115.20
2019-04-20T17:37:20.695Z,102114.80
2019-04-20T17:40:11.130Z,102117.51
2019-04-20T17:42:41.288Z,102113.09
2019-04-20T17:45:11.368Z,102119.36
2019-04-20T17:47:57.829Z,102121.16
2019-04-20T17:50:34.833Z,102111.42
2019-04-20T17:53:04.073Z,102120.75
2019-04-20T17:55:44.940Z,102115.48
2019-04-20T17:58:21.936Z,102115.95
2019-04-20T18:01:04.968Z,102118.19
2019-04-20T18:04:22.968Z,102111.09
2019-04-20T18:06:32.441Z,102117.77
2019-04-20T18:09:05.203Z,102122.70
2019-04-20T18:11:27.075Z,102120.48
2019-04-20T18:14:16.904Z,102120.06
2019-04-20T18:16:56.395Z,102115.66
2019-04-20T18:19:22.261Z,102118.31
2019-04-20T18:21:58.802Z,102120.96
2019-04-20T18:24:55.887Z,102127.63
2019-04-20T18:27:27.915Z,102123.13
2019-04-20T18:30:01.450Z,102120.44
2019-04-20T18:32:35.596Z,102122.63
2019-04-20T18:35:22.493Z,102117.30
2019-04-20T18:38:00.792Z,102117.23
2019-04-20T18:40:37.677Z,102115.39
2019-04-20T18:43:12.598Z,102114.45
2019-04-20T18:46:01.525Z,102116.62
2019-04-20T18:48:39.433Z,102116.03
2019-04-20T18:50:50.774Z,102112.89
2019-04-20T18:53:33.614Z,102114.55
2019-04-20T18:56:03.996Z,102117.56
2019-04-20T18:58:37.424Z,102117.92
2019-04-20T19:01:12.954Z,102113.87
2019-04-20T19:03:47.727Z,102113.80
2019-04-20T19:06:21.321Z,102119.03
2019-04-20T19:08:56.013Z,102114.10
2019-04-20T19:11:30.898Z,102111.39
2019-04-20T19:14:42.739Z,102114.42
2019-04-20T19:17:45.168Z,102114.80
2019-04-20T19:20:28.957Z,102110.28
2019-04-20T19:23:02.188Z,102113.73
2019-04-20T19:25:38.910Z,102111.89
2019-04-20T19:28:13.948Z,102113.58
2019-04-20T19:31:00.081Z,102112.19
2019-04-20T19:33:33.238Z,102116.09
2019-04-20T19:36:05.388Z,102110.72
2019-04-20T19:38:42.037Z,102101.25
2019-04-20T19:41:25.351Z,102112.20
2019-04-20T19:44:04.313Z,102121.31
2019-04-20T19:46:53.685Z,102134.68
2019-04-20T19:49:19.378Z,102142.55
2019-04-20T19:52:15.553Z,102145.89
2019-04-20T19:54:43.095Z,102137.72
2019-04-20T19:57:09.430Z,102148.87
2019-04-20T19:59:38.846Z,102152.37
2019-04-20T20:02:09.566Z,102154.16
2019-04-20T20:04:53.291Z,102151.05
2019-04-20T20:07:31.088Z,102155.48
2019-04-20T20:10:06.029Z,102145.27
2019-04-20T20:12:47.061Z,102149.63
2019-04-20T20:15:22.694Z,102146.55
2019-04-20T20:18:14.061Z,102146.13
2019-04-20T20:20:50.057Z,102151.84
2019-04-20T20:23:03.687Z,102150.52
2019-04-20T20:25:43.169Z,102157.56
2019-04-20T20:28:28.697Z,102160.99
2019-04-20T20:31:05.051Z,102160.89
2019-04-20T20:33:43.924Z,102162.10
2019-04-20T20:36:15.621Z,102158.92
2019-04-20T20:38:51.782Z,102165.84
2019-04-20T20:41:33.135Z,102165.77
2019-04-20T20:44:05.859Z,102173.63
2019-04-20T20:46:55.022Z,102176.27
2019-04-20T20:49:38.838Z,102178.91
2019-04-20T20:52:17.384Z,102182.41
2019-04-20T20:54:47.712Z,102185.83
2019-04-20T20:57:13.232Z,102179.27
2019-04-20T20:59:54.826Z,102187.11
2019-04-20T21:02:33.722Z,102182.25
2019-04-20T21:04:57.862Z,102176.89
2019-04-20T21:07:31.827Z,102175.06
2019-04-20T21:10:15.424Z,102176.34
2019-04-20T21:13:17.286Z,102172.25
2019-04-20T21:16:01.264Z,102169.58
2019-04-20T21:18:50.448Z,102169.02
2019-04-20T21:21:28.744Z,102173.75
2019-04-20T21:24:05.137Z,102178.02
2019-04-20T21:26:38.739Z,102178.84
2019-04-20T21:29:08.145Z,102171.17
2019-04-20T21:31:56.791Z,102174.61
2019-04-20T21:34:24.142Z,102173.20
2019-04-20T21:37:05.631Z,102172.18
2019-04-20T21:39:40.949Z,102171.11
2019-04-20T21:42:14.386Z,102172.39
2019-04-20T21:44:47.223Z,102168.34
2019-04-20T21:47:23.829Z,102172.64
2019-04-20T21:50:11.097Z,102176.50
2019-04-20T21:52:36.110Z,102180.47
2019-04-20T21:55:03.780Z,102171.00
2019-04-20T21:57:43.375Z,102169.16
2019-04-20T22:00:25.046Z,102173.02
2019-04-20T22:02:57.653Z,102178.67
2019-04-20T22:05:26.338Z,102175.52
2019-04-20T22:08:03.246Z,102175.89
2019-04-20T22:10:34.631Z,102174.11
2019-04-20T22:13:07.905Z,102177.11
2019-04-20T22:15:51.675Z,102179.66
2019-04-20T22:18:21.504Z,102181.55
2019-04-20T22:21:04.694Z,102177.59
2019-04-20T22:23:43.426Z,102173.58
2019-04-20T22:26:12.019Z,102175.18
2019-04-20T22:28:36.506Z,102175.52
2019-04-20T22:31:11.908Z,102171.97
2019-04-20T22:33:46.841Z,102176.34
2019-04-20T22:36:24.078Z,102177.11
2019-04-20T22:39:15.607Z,102172.72
2019-04-20T22:41:58.624Z,102167.34
2019-04-20T22:44:28.409Z,102170.78
2019-04-20T22:47:05.404Z,102172.05
2019-04-20T22:49:50.194Z,102166.20
2019-04-20T22:52:26.595Z,102170.89
2019-04-20T22:55:10.076Z,102168.05
2019-04-20T22:57:36.317Z,102162.10
2019-04-20T23:00:06.258Z,102161.99
2019-04-20T23:02:36.538Z,102157.45
2019-04-20T23:05:10.937Z,102149.44
2019-04-20T23:07:44.380Z,102154.98
2019-04-20T23:10:25.421Z,102147.86
2019-04-20T23:12:56.205Z,102142.97
2019-04-20T23:15:28.046Z,102143.69
2019-04-20T23:18:02.230Z,102141.06
2019-04-20T23:20:38.432Z,102138.42
2019-04-20T23:23:11.118Z,102134.78
2019-04-20T23:25:45.157Z,102127.97
2019-04-20T23:28:20.847Z,102125.59
2019-04-20T23:31:00.098Z,102122.65
2019-04-20T23:33:28.087Z,102124.94
2019-04-20T23:36:04.252Z,102124.24
2019-04-20T23:38:36.731Z,102120.05
2019-04-20T23:41:10.080Z,102119.77
2019-04-20T23:43:49.498Z,102114.32
2019-04-20T23:46:45.275Z,102118.14
2019-04-20T23:49:27.754Z,102116.22
2019-04-20T23:52:27.035Z,102114.25
2019-04-20T23:54:36.798Z,102106.66
2019-04-20T23:57:08.128Z,102102.23
2019-04-20T23:59:44.462Z,102105.16
